Time;durP1;ratioP1;P1;durP2;ratioP2;P2;SDS_P1;SDS_P2;PMS_P1;PMS_P2;Temp;Humidity;BMP_temperature;BMP_pressure;BME280_temperature;BME280_humidity;BME280_pressure;Samples;Min_cycle;Max_cycle;Signal;HPM_P1;HPM_P2
2022/06/04 00:01:18;;;;;;;7.10;4.05;;;;;;;17.93;84.60;100668.88;4973878;28;20053;-76
2022/06/04 00:04:21;;;;;;;3.78;3.35;;;;;;;17.81;85.59;100671.56;4974116;28;20419;-76
2022/06/04 00:07:25;;;;;;;5.68;3.15;;;;;;;17.88;84.91;100664.81;4973995;28;20045;-76
2022/06/04 00:17:21;;;;;;;6.00;4.00;;;;;;;17.70;86.02;100660.94;4973910;28;20130;-76
2022/06/04 00:20:25;;;;;;;4.93;2.92;;;;;;;17.75;85.54;100663.25;4973814;28;20094;-76
2022/06/04 00:23:28;;;;;;;6.20;3.17;;;;;;;17.67;86.25;100667.31;4973037;28;20037;-76
2022/06/04 00:26:32;;;;;;;4.93;3.90;;;;;;;17.63;86.55;100670.34;4973304;28;20041;-76
2022/06/04 00:29:36;;;;;;;6.18;3.70;;;;;;;17.60;86.61;100670.59;4973533;28;20561;-76
2022/06/04 00:32:40;;;;;;;5.50;3.72;;;;;;;17.50;87.06;100669.63;4973384;28;20174;-74
2022/06/04 00:35:46;;;;;;;5.70;3.95;;;;;;;17.47;87.23;100672.53;4972916;28;20517;-75
2022/06/04 00:38:49;;;;;;;5.88;3.42;;;;;;;17.51;86.87;100676.59;4973260;28;20042;-75
2022/06/04 00:41:59;;;;;;;7.15;3.85;;;;;;;17.58;86.55;100677.78;4973475;28;20045;-75
2022/06/04 00:45:21;;;;;;;5.75;3.58;;;;;;;17.70;85.49;100671.53;4973112;28;20124;-74
2022/06/04 00:48:26;;;;;;;6.75;4.00;;;;;;;17.68;85.50;100665.53;4973692;28;20454;-75
2022/06/04 00:51:29;;;;;;;6.97;4.25;;;;;;;17.48;86.56;100674.19;4972692;28;20045;-75
2022/06/04 00:54:33;;;;;;;6.07;3.45;;;;;;;17.44;86.32;100682.38;4973341;28;20078;-75
2022/06/04 00:57:45;;;;;;;6.60;3.58;;;;;;;17.35;86.20;100677.78;4973629;28;20109;-75
2022/06/04 01:01:00;;;;;;;5.60;3.95;;;;;;;17.48;85.96;100687.41;4973303;28;20065;-75
2022/06/04 01:04:12;;;;;;;7.00;3.50;;;;;;;17.59;85.31;100690.06;4973494;28;20394;-75
2022/06/04 01:07:41;;;;;;;5.38;3.35;;;;;;;17.53;85.68;100701.97;4973016;28;20517;-75
2022/06/04 01:11:05;;;;;;;6.03;3.75;;;;;;;17.58;84.51;100698.94;4973454;28;20061;-75
2022/06/04 01:14:28;;;;;;;5.55;3.30;;;;;;;17.34;86.17;100705.19;4972968;28;20585;-75
2022/06/04 01:17:31;;;;;;;8.18;3.67;;;;;;;17.24;86.78;100701.59;4972311;28;20101;-75
2022/06/04 01:20:53;;;;;;;9.30;3.90;;;;;;;17.17;87.06;100705.69;4973239;28;20097;-75
2022/06/04 01:24:12;;;;;;;7.30;3.60;;;;;;;17.05;87.49;100699.53;4975090;28;20073;-75
2022/06/04 01:27:26;;;;;;;4.50;3.30;;;;;;;17.01;87.48;100713.09;4977175;28;20109;-75
2022/06/04 01:30:39;;;;;;;4.88;3.63;;;;;;;16.93;87.95;100706.56;4977306;28;20046;-75
2022/06/04 01:33:50;;;;;;;10.43;3.72;;;;;;;16.89;87.66;100699.84;4976913;28;20513;-75
2022/06/04 01:37:01;;;;;;;6.13;3.53;;;;;;;16.95;86.65;100707.31;4976780;28;20178;-75
2022/06/04 01:43:39;;;;;;;5.80;3.55;;;;;;;16.71;88.24;100714.41;4976589;28;20092;-76
2022/06/04 01:46:51;;;;;;;4.97;3.72;;;;;;;16.60;88.01;100709.09;4976545;28;20082;-76
2022/06/04 01:49:56;;;;;;;6.70;3.75;;;;;;;16.52;87.77;100710.47;4976936;28;20434;-76
2022/06/04 01:53:04;;;;;;;10.45;3.72;;;;;;;16.46;88.17;100707.47;4976353;28;20049;-76
2022/06/04 01:56:16;;;;;;;5.88;3.83;;;;;;;16.39;87.62;100707.06;4976102;28;20102;-76
2022/06/04 01:59:35;;;;;;;7.88;3.70;;;;;;;16.38;86.75;100701.94;4973348;28;20053;-76
2022/06/04 02:02:50;;;;;;;6.65;3.53;;;;;;;16.30;86.50;100714.81;4976584;28;20463;-76
2022/06/04 02:06:00;;;;;;;9.23;3.35;;;;;;;16.31;86.01;100711.25;4976369;28;20050;-76
2022/06/04 02:09:14;;;;;;;7.00;3.60;;;;;;;16.23;85.99;100710.00;4976690;28;20050;-76
2022/06/04 02:12:19;;;;;;;9.65;3.20;;;;;;;16.12;85.98;100711.75;4976184;28;20045;-76
2022/06/04 02:15:30;;;;;;;5.68;3.40;;;;;;;15.97;86.46;100714.53;4976252;28;20191;-76
2022/06/04 02:18:35;;;;;;;7.15;4.53;;;;;;;16.06;86.31;100712.19;4976320;28;20054;-76
2022/06/04 02:21:39;;;;;;;8.45;3.40;;;;;;;16.08;86.09;100705.00;4975196;28;20045;-76
2022/06/04 02:24:43;;;;;;;5.57;3.35;;;;;;;15.94;85.93;100704.19;4975920;28;20057;-76
2022/06/04 02:27:49;;;;;;;7.18;3.67;;;;;;;15.97;85.79;100697.88;4975758;28;20506;-76
2022/06/04 02:30:56;;;;;;;10.85;3.40;;;;;;;15.90;85.98;100694.84;4975676;28;20402;-76
2022/06/04 02:34:39;;;;;;;8.68;3.80;;;;;;;15.89;85.84;100695.78;4974596;28;20050;-75
2022/06/04 02:37:42;;;;;;;7.78;3.67;;;;;;;15.72;86.84;100683.78;4897264;29;20071;-75
2022/06/04 02:40:54;;;;;;;7.97;3.38;;;;;;;15.77;86.26;100686.13;4897100;29;20445;-75
2022/06/04 02:44:07;;;;;;;7.03;4.07;;;;;;;15.67;86.80;100680.66;4975513;28;20106;-75
2022/06/04 02:47:15;;;;;;;8.55;3.50;;;;;;;15.75;86.59;100682.75;4975841;28;20516;-75
2022/06/04 02:50:24;;;;;;;8.13;4.40;;;;;;;15.66;86.47;100676.28;4975865;28;20073;-75
2022/06/04 02:53:32;;;;;;;7.55;3.63;;;;;;;15.87;85.14;100679.22;4975471;28;20427;-75
2022/06/04 02:56:38;;;;;;;9.45;3.72;;;;;;;15.75;85.61;100673.03;4975143;28;20081;-75
2022/06/04 02:59:43;;;;;;;6.78;3.20;;;;;;;15.65;85.83;100681.69;4975835;28;20466;-75
2022/06/04 03:02:47;;;;;;;6.53;3.30;;;;;;;15.56;86.21;100673.47;4975967;28;20526;-75
2022/06/04 03:05:55;;;;;;;6.45;3.63;;;;;;;15.53;86.48;100673.69;4975168;28;20159;-74
2022/06/04 03:09:03;;;;;;;5.05;3.30;;;;;;;15.66;86.23;100673.66;4974780;28;20049;-75
2022/06/04 03:12:08;;;;;;;6.05;3.13;;;;;;;15.87;85.35;100666.03;4975398;28;20148;-75
2022/06/04 03:15:12;;;;;;;13.45;3.90;;;;;;;15.72;85.21;100673.25;4973792;28;20050;-75
2022/06/04 03:18:17;;;;;;;7.85;3.22;;;;;;;15.71;85.31;100682.13;4974819;28;20101;-75
2022/06/04 03:21:20;;;;;;;8.55;3.50;;;;;;;15.94;84.32;100683.09;4975001;28;20049;-75
2022/06/04 03:24:24;;;;;;;8.65;3.22;;;;;;;15.92;84.50;100678.88;4974086;28;20045;-75
2022/06/04 03:27:27;;;;;;;5.78;3.75;;;;;;;15.76;85.00;100689.69;4974860;28;20054;-75
2022/06/04 03:30:30;;;;;;;6.72;3.03;;;;;;;15.88;84.52;100686.19;4974647;28;20077;-74
2022/06/04 03:33:34;;;;;;;10.07;4.10;;;;;;;15.56;85.95;100686.63;4974865;28;20050;-75
2022/06/04 03:36:38;;;;;;;9.65;4.20;;;;;;;15.49;86.46;100693.31;4974656;28;20647;-74
2022/06/04 03:39:42;;;;;;;7.68;3.42;;;;;;;15.41;86.96;100685.09;4974302;28;20097;-76
2022/06/04 03:42:45;;;;;;;5.63;3.33;;;;;;;15.54;86.62;100691.19;4974356;28;20130;-76
2022/06/04 03:45:49;;;;;;;6.28;3.70;;;;;;;15.64;86.12;100690.56;4974403;28;20498;-76
2022/06/04 03:48:54;;;;;;;9.35;3.88;;;;;;;15.58;86.80;100697.94;4974572;28;20134;-76
2022/06/04 03:51:58;;;;;;;11.10;3.58;;;;;;;15.60;87.03;100705.72;4974203;28;20045;-76
2022/06/04 03:55:03;;;;;;;5.22;3.92;;;;;;;15.57;87.23;100704.16;4968955;28;20057;-76
2022/06/04 03:58:07;;;;;;;5.82;3.28;;;;;;;15.56;87.27;100705.09;4969547;28;20335;-76
2022/06/04 04:01:14;;;;;;;5.43;4.22;;;;;;;15.66;86.90;100710.56;4974022;28;20101;-76
2022/06/04 04:04:18;;;;;;;7.88;4.18;;;;;;;15.58;87.15;100718.19;4970825;28;20089;-76
2022/06/04 04:07:21;;;;;;;9.75;4.15;;;;;;;15.55;87.44;100713.13;4954289;28;20133;-76
2022/06/04 04:10:27;;;;;;;7.93;4.18;;;;;;;15.67;86.97;100717.56;4974416;28;20090;-76
2022/06/04 04:13:30;;;;;;;5.72;4.38;;;;;;;15.63;87.41;100726.59;4974036;28;20050;-76
2022/06/04 04:16:34;;;;;;;9.52;5.00;;;;;;;15.53;88.27;100728.19;4973959;28;20050;-76
2022/06/04 04:19:37;;;;;;;10.07;5.90;;;;;;;15.58;88.69;100728.72;4974290;28;20057;-76
2022/06/04 04:22:42;;;;;;;10.48;7.10;;;;;;;15.67;88.34;100737.81;4973842;28;20081;-76
2022/06/04 04:25:45;;;;;;;10.30;6.85;;;;;;;15.57;89.09;100742.81;4973461;28;20463;-76
2022/06/04 04:28:49;;;;;;;11.27;7.60;;;;;;;15.69;89.20;100746.44;4973467;28;20513;-76
2022/06/04 04:31:53;;;;;;;12.70;9.27;;;;;;;15.65;90.13;100750.22;4974003;28;20093;-75
2022/06/04 04:34:58;;;;;;;14.80;9.02;;;;;;;15.57;90.78;100754.25;4626212;28;10000509;-75
2022/06/04 04:38:02;;;;;;;13.00;9.65;;;;;;;15.59;90.93;100759.38;4989306;28;20048;-77
2022/06/04 04:41:14;;;;;;;15.45;10.52;;;;;;;15.66;90.58;100754.53;4989069;28;20092;-76
2022/06/04 04:44:18;;;;;;;9.05;7.85;;;;;;;15.61;90.93;100746.13;4989451;28;20108;-76
2022/06/04 04:47:21;;;;;;;16.52;9.30;;;;;;;15.64;90.52;100753.81;4989067;28;20146;-76
2022/06/04 04:50:31;;;;;;;12.88;8.38;;;;;;;15.63;90.34;100762.66;5005895;28;20044;-76
2022/06/04 04:53:35;;;;;;;12.32;7.53;;;;;;;15.56;90.75;100762.22;5009074;28;20048;-76
2022/06/04 04:56:42;;;;;;;10.00;6.93;;;;;;;15.88;89.00;100756.53;5008749;28;20080;-76
2022/06/04 04:59:45;;;;;;;8.23;7.43;;;;;;;15.74;88.80;100749.59;5008301;28;20073;-76
2022/06/04 05:02:49;;;;;;;9.48;7.35;;;;;;;15.71;89.25;100755.94;5008317;28;20095;-76
2022/06/04 05:06:00;;;;;;;11.05;6.60;;;;;;;15.97;87.99;100780.47;5008700;28;21049;-76
2022/06/04 05:09:05;;;;;;;8.18;5.85;;;;;;;16.01;87.35;100781.91;5008947;28;20088;-76
2022/06/04 05:12:10;;;;;;;8.00;5.18;;;;;;;15.92;87.42;100785.22;4996639;28;20096;-76
2022/06/04 05:15:14;;;;;;;4.93;4.05;;;;;;;16.19;85.92;100794.78;5008569;28;20575;-76
2022/06/04 05:18:20;;;;;;;7.45;4.00;;;;;;;16.14;86.44;100802.16;4771022;28;10000716;-77
2022/06/04 05:21:36;;;;;;;6.15;4.55;;;;;;;16.07;86.52;100804.38;5008680;28;20638;-76
2022/06/04 05:24:39;;;;;;;6.47;4.15;;;;;;;16.00;86.85;100814.53;5008530;28;20053;-76
2022/06/04 05:27:43;;;;;;;8.75;4.57;;;;;;;16.20;86.18;100822.81;5011577;28;20092;-76
2022/06/04 05:30:46;;;;;;;5.65;3.55;;;;;;;16.30;85.40;100815.94;4994778;28;20065;-76
2022/06/04 05:33:49;;;;;;;7.15;4.15;;;;;;;16.41;85.52;100820.47;5009644;28;20497;-76
2022/06/04 05:36:54;;;;;;;7.38;4.03;;;;;;;16.46;85.06;100816.53;5010163;28;20145;-76
2022/06/04 05:39:57;;;;;;;7.78;3.88;;;;;;;16.42;85.20;100816.84;5010054;28;20185;-74
2022/06/04 05:43:01;;;;;;;5.20;3.45;;;;;;;16.59;84.51;100818.28;5010108;28;20049;-74
2022/06/04 05:46:10;;;;;;;4.28;3.28;;;;;;;16.78;83.69;100815.16;5010167;28;20121;-75
2022/06/04 05:49:14;;;;;;;5.50;3.92;;;;;;;16.66;84.81;100816.88;5012023;28;20049;-75
2022/06/04 05:52:18;;;;;;;4.35;3.90;;;;;;;16.74;84.49;100815.34;5011812;28;20121;-75
2022/06/04 05:55:22;;;;;;;5.82;3.67;;;;;;;16.62;85.63;100816.25;5011847;28;20041;-76
2022/06/04 05:58:26;;;;;;;5.13;3.33;;;;;;;16.89;83.92;100818.69;5011881;28;20076;-75
2022/06/04 06:01:34;;;;;;;6.78;3.83;;;;;;;16.93;84.27;100817.50;5011924;28;20108;-75
2022/06/04 06:04:37;;;;;;;5.65;3.53;;;;;;;16.99;83.88;100821.50;5011541;28;20180;-76
2022/06/04 06:07:41;;;;;;;3.97;3.33;;;;;;;17.14;83.57;100816.88;5011504;28;20045;-75
2022/06/04 06:10:44;;;;;;;5.85;3.33;;;;;;;17.18;83.66;100807.75;5015375;28;20119;-75
2022/06/04 06:13:49;;;;;;;6.93;3.70;;;;;;;17.26;83.48;100815.97;5015323;28;20049;-76
2022/06/04 06:16:53;;;;;;;6.60;4.40;;;;;;;17.29;83.95;100807.78;5015056;28;20052;-76
2022/06/04 06:19:56;;;;;;;6.43;3.53;;;;;;;17.35;83.81;100799.38;5015167;28;20052;-76
2022/06/04 06:23:01;;;;;;;5.20;3.60;;;;;;;17.40;83.80;100802.53;4997389;28;20511;-76
2022/06/04 06:26:11;;;;;;;7.53;3.38;;;;;;;17.56;83.67;100804.84;5014964;28;20044;-76
2022/06/04 06:29:17;;;;;;;5.20;3.50;;;;;;;17.66;83.94;100802.31;5011279;28;20601;-76
2022/06/04 06:32:21;;;;;;;4.22;3.67;;;;;;;17.80;83.36;100798.63;5011721;28;20153;-76
2022/06/04 06:35:25;;;;;;;4.85;3.25;;;;;;;17.91;82.65;100790.69;5014561;28;20061;-76
2022/06/04 06:38:29;;;;;;;4.60;3.92;;;;;;;18.01;82.35;100793.44;5014931;28;20044;-75
2022/06/04 06:41:33;;;;;;;4.55;3.67;;;;;;;18.15;81.42;100795.84;5014705;28;20041;-76
2022/06/04 06:44:36;;;;;;;4.50;3.67;;;;;;;18.03;81.69;100795.03;5014177;28;20041;-76
2022/06/04 06:47:40;;;;;;;5.45;3.78;;;;;;;18.15;81.17;100787.06;4997127;28;20503;-76
2022/06/04 06:50:44;;;;;;;9.30;3.50;;;;;;;18.31;79.87;100785.72;5014442;28;20500;-75
2022/06/04 06:53:47;;;;;;;6.55;3.88;;;;;;;18.42;78.46;100790.13;5014544;28;20401;-75
2022/06/04 06:56:53;;;;;;;5.05;3.47;;;;;;;18.54;77.47;100796.25;5014556;28;20143;-76
2022/06/04 06:59:56;;;;;;;8.10;3.30;;;;;;;18.66;77.38;100800.53;5014216;28;20049;-76
2022/06/04 07:03:00;;;;;;;4.30;3.35;;;;;;;18.66;76.79;100803.19;5014244;28;20044;-76
2022/06/04 07:06:09;;;;;;;5.13;3.58;;;;;;;18.77;76.47;100797.88;5000549;28;20557;-76
2022/06/04 07:09:35;;;;;;;4.38;3.53;;;;;;;18.79;76.74;100806.56;5002531;28;20108;-75
2022/06/04 07:12:38;;;;;;;4.50;3.55;;;;;;;18.81;76.84;100801.94;5013837;28;20129;-76
2022/06/04 07:15:43;;;;;;;7.70;3.22;;;;;;;18.80;76.53;100810.88;5013741;28;20056;-75
2022/06/04 07:18:47;;;;;;;4.63;3.80;;;;;;;18.84;76.56;100800.03;5014106;28;20091;-76
2022/06/04 07:21:53;;;;;;;6.18;3.10;;;;;;;18.90;76.32;100805.66;5013279;28;20064;-76
2022/06/04 07:24:57;;;;;;;4.95;3.30;;;;;;;18.91;76.27;100803.84;5013838;28;20567;-76
2022/06/04 07:28:01;;;;;;;6.55;3.78;;;;;;;18.91;76.25;100809.16;5014253;28;20499;-75
2022/06/04 07:31:06;;;;;;;8.48;3.78;;;;;;;18.86;76.47;100813.97;5001437;28;20049;-76
2022/06/04 07:34:10;;;;;;;8.13;3.60;;;;;;;19.01;76.02;100816.19;5009573;28;20061;-76
2022/06/04 07:37:16;;;;;;;6.68;3.58;;;;;;;19.06;76.09;100810.53;5014308;28;20125;-75
2022/06/04 07:40:19;;;;;;;8.70;3.58;;;;;;;19.13;75.31;100817.00;5014421;28;20103;-76
2022/06/04 07:43:24;;;;;;;6.30;3.70;;;;;;;19.19;75.41;100810.34;5014339;28;20120;-76
2022/06/04 07:46:30;;;;;;;4.65;3.42;;;;;;;19.20;74.99;100820.81;5014276;28;20072;-75
2022/06/04 07:49:34;;;;;;;4.57;3.05;;;;;;;19.22;75.41;100820.69;4997846;28;20117;-76
2022/06/04 07:52:40;;;;;;;6.32;3.22;;;;;;;19.33;74.58;100812.66;5014096;28;20057;-76
2022/06/04 07:55:43;;;;;;;10.45;4.43;;;;;;;19.26;75.18;100816.81;5013473;28;20076;-76
2022/06/04 07:58:47;;;;;;;5.97;3.15;;;;;;;19.20;75.20;100815.50;5013189;28;20045;-76
2022/06/04 08:01:51;;;;;;;3.95;3.05;;;;;;;19.20;75.09;100815.50;5014024;28;20045;-77
2022/06/04 08:04:54;;;;;;;6.65;3.50;;;;;;;19.25;74.62;100815.97;5013251;28;20127;-75
2022/06/04 08:07:57;;;;;;;3.70;2.95;;;;;;;19.13;75.89;100816.16;5013770;28;20516;-75
2022/06/04 08:11:30;;;;;;;5.47;3.25;;;;;;;19.27;75.09;100829.94;5012551;28;20080;-76
2022/06/04 08:14:26;;;;;;;4.80;3.05;;;;;;;19.40;74.36;100828.88;5012670;28;20053;-78
2022/06/04 08:17:31;;;;;;;5.03;3.30;;;;;;;19.42;74.59;100829.59;5012921;28;20108;-76
2022/06/04 08:20:40;;;;;;;3.03;2.60;;;;;;;19.55;73.92;100818.78;5013124;28;20122;-76
2022/06/04 08:23:44;;;;;;;9.80;3.80;;;;;;;19.71;74.84;100827.97;5012913;28;20452;-74
2022/06/04 08:26:53;;;;;;;4.47;3.15;;;;;;;19.82;73.21;100831.56;5013098;28;20112;-78
2022/06/04 08:29:57;;;;;;;6.35;2.70;;;;;;;19.95;72.62;100832.16;5012740;28;20169;-79
2022/06/04 08:33:00;;;;;;;4.78;3.10;;;;;;;20.05;72.19;100843.66;5011807;28;20045;-76
2022/06/04 08:36:06;;;;;;;5.80;3.72;;;;;;;20.07;71.79;100849.69;5012475;28;20053;-76
2022/06/04 08:39:12;;;;;;;6.72;3.20;;;;;;;20.08;71.37;100856.66;4999743;28;20048;-77
2022/06/04 08:42:39;;;;;;;7.75;2.92;;;;;;;20.01;72.10;100844.91;5012678;28;20084;-75
2022/06/04 08:45:44;;;;;;;4.65;2.90;;;;;;;19.93;72.36;100842.06;5004421;28;20085;-75
2022/06/04 08:48:49;;;;;;;4.72;2.80;;;;;;;20.19;71.02;100840.63;5011472;28;20044;-75
2022/06/04 08:51:53;;;;;;;5.10;3.05;;;;;;;20.33;71.12;100841.25;5012048;28;20052;-75
2022/06/04 08:59:04;;;;;;;5.72;2.63;;;;;;;20.37;71.18;100842.66;5009334;28;20108;-77
2022/06/04 09:02:18;;;;;;;4.65;2.95;;;;;;;20.55;70.11;100848.16;5013474;28;20660;-76
2022/06/04 09:05:57;;;;;;;3.80;3.00;;;;;;;20.62;69.40;100850.13;5009258;28;20200;-77
2022/06/04 09:09:15;;;;;;;7.00;2.47;;;;;;;20.67;70.29;100839.09;5012550;28;20137;-76
2022/06/04 09:12:42;;;;;;;5.93;2.67;;;;;;;20.74;69.41;100842.91;5008994;28;20145;-76
2022/06/04 09:15:50;;;;;;;6.10;2.67;;;;;;;20.80;69.40;100844.13;5012297;28;20420;-76
2022/06/04 09:18:59;;;;;;;4.80;2.25;;;;;;;20.87;68.54;100847.94;5017789;28;20080;-75
2022/06/04 09:22:17;;;;;;;4.40;2.65;;;;;;;20.72;70.28;100855.47;5012403;28;20513;-76
2022/06/04 09:25:24;;;;;;;6.57;2.75;;;;;;;20.83;70.28;100868.63;5012339;28;20045;-76
2022/06/04 09:28:54;;;;;;;5.85;2.47;;;;;;;20.90;69.04;100863.63;5012931;28;20123;-76
2022/06/04 09:32:08;;;;;;;29.80;3.95;;;;;;;21.00;68.71;100868.94;5013007;28;20092;-76
2022/06/04 09:35:23;;;;;;;5.53;2.63;;;;;;;21.07;67.70;100865.56;5012530;28;20100;-76
2022/06/04 09:38:31;;;;;;;3.95;2.22;;;;;;;21.11;67.99;100868.78;5011109;28;20141;-76
2022/06/04 09:41:35;;;;;;;4.40;2.83;;;;;;;20.88;70.20;100868.22;5013115;28;20120;-76
2022/06/04 09:44:53;;;;;;;3.72;2.20;;;;;;;21.10;68.68;100878.59;5013863;28;20041;-76
2022/06/04 09:47:59;;;;;;;4.30;2.30;;;;;;;21.18;67.70;100872.56;5016008;28;20056;-76
2022/06/04 09:51:15;;;;;;;3.47;2.40;;;;;;;21.18;67.17;100866.41;5015624;28;20527;-76
2022/06/04 09:54:23;;;;;;;5.47;2.20;;;;;;;21.27;67.65;100876.19;5015457;28;20092;-76
2022/06/04 09:57:37;;;;;;;3.22;2.25;;;;;;;21.14;68.50;100877.31;5015504;28;20084;-76
2022/06/04 10:00:40;;;;;;;5.85;2.60;;;;;;;21.18;68.42;100874.38;5015329;28;20455;-76
2022/06/04 10:03:56;;;;;;;5.40;2.75;;;;;;;21.23;68.34;100874.81;5015459;28;20048;-77
2022/06/04 10:07:10;;;;;;;4.32;2.50;;;;;;;21.34;68.01;100879.97;5015283;28;20048;-77
2022/06/04 10:10:45;;;;;;;2.90;2.30;;;;;;;21.32;67.15;100868.66;5011115;28;20048;-77
2022/06/04 10:13:52;;;;;;;3.00;2.30;;;;;;;21.46;67.04;100876.22;5015445;28;20061;-77
2022/06/04 10:16:56;;;;;;;4.38;2.97;;;;;;;21.52;65.65;100875.63;5015428;28;20053;-77
2022/06/04 10:20:00;;;;;;;4.85;2.47;;;;;;;21.42;66.51;100874.81;5015463;28;20083;-77
2022/06/04 10:23:11;;;;;;;4.10;2.00;;;;;;;21.33;67.30;100865.81;5015064;28;20456;-77
2022/06/04 10:26:49;;;;;;;4.45;2.25;;;;;;;21.44;66.38;100867.53;5015091;28;20061;-76
2022/06/04 10:30:01;;;;;;;4.05;2.42;;;;;;;21.70;66.79;100866.94;5005073;28;20081;-77
2022/06/04 10:33:18;;;;;;;4.32;2.05;;;;;;;21.71;66.37;100852.63;5015193;28;20398;-77
2022/06/04 10:36:35;;;;;;;4.20;2.55;;;;;;;21.90;65.71;100857.06;5012373;28;20148;-77
2022/06/04 10:39:43;;;;;;;4.10;2.00;;;;;;;21.89;66.11;100856.22;5014846;28;20129;-77
2022/06/04 10:43:34;;;;;;;5.22;2.40;;;;;;;22.02;64.00;100856.75;5014757;28;20060;-77
2022/06/04 10:46:52;;;;;;;3.80;2.15;;;;;;;22.19;62.90;100846.31;5014424;28;20449;-76
2022/06/04 10:50:14;;;;;;;5.40;2.08;;;;;;;22.19;62.01;100859.63;5015202;28;20506;-77
2022/06/04 10:53:36;;;;;;;3.20;1.70;;;;;;;22.14;63.03;100853.88;5014319;28;20463;-77
2022/06/04 10:57:21;;;;;;;4.15;2.25;;;;;;;22.19;63.21;100860.47;5013731;28;20041;-77
2022/06/04 11:00:44;;;;;;;3.28;1.85;;;;;;;22.25;62.40;100845.72;4996870;28;20060;-77
2022/06/04 11:04:15;;;;;;;3.40;1.70;;;;;;;22.51;62.17;100846.69;5014399;28;20454;-77
2022/06/04 11:07:32;;;;;;;4.65;2.00;;;;;;;22.83;59.63;100845.34;5014039;28;20061;-77
2022/06/04 11:10:37;;;;;;;3.35;1.92;;;;;;;22.64;59.57;100840.16;5014396;28;20063;-77
2022/06/04 11:13:48;;;;;;;3.15;1.90;;;;;;;22.66;60.66;100839.03;5014373;28;20056;-77
2022/06/04 11:17:06;;;;;;;4.68;2.40;;;;;;;22.73;61.11;100839.25;5013970;28;20398;-79
2022/06/04 11:20:24;;;;;;;2.78;1.70;;;;;;;22.79;58.47;100841.31;5009694;28;20111;-77
2022/06/04 11:23:40;;;;;;;4.78;1.73;;;;;;;22.86;59.88;100855.72;5014466;28;20351;-76
2022/06/04 11:26:50;;;;;;;3.13;1.95;;;;;;;23.08;57.99;100845.63;5014628;28;20100;-76
2022/06/04 11:29:55;;;;;;;3.58;1.70;;;;;;;23.02;58.01;100833.72;5015389;28;20052;-77
2022/06/04 11:33:13;;;;;;;2.75;1.50;;;;;;;23.56;56.26;100837.13;5014220;28;20076;-76
2022/06/04 11:36:35;;;;;;;2.45;1.55;;;;;;;23.75;54.94;100830.78;5013387;28;20040;-76
2022/06/04 11:40:15;;;;;;;5.40;1.70;;;;;;;23.82;53.12;100839.00;5013050;28;20073;-76
2022/06/04 11:43:26;;;;;;;2.45;1.20;;;;;;;23.91;52.19;100840.72;5007431;28;20041;-76
2022/06/04 11:46:42;;;;;;;2.10;1.00;;;;;;;23.92;49.73;100839.69;4999429;28;20225;-77
2022/06/04 11:50:32;;;;;;;2.22;0.90;;;;;;;24.12;46.86;100826.94;4995788;28;20041;-77
2022/06/04 11:53:40;;;;;;;2.55;1.00;;;;;;;24.05;48.42;100831.25;4999999;28;20048;-77
2022/06/04 11:56:56;;;;;;;4.07;1.00;;;;;;;23.99;48.68;100831.88;4993670;28;20036;-77
2022/06/04 12:00:20;;;;;;;2.83;1.13;;;;;;;23.86;51.14;100830.50;4994130;28;20041;-77
2022/06/04 12:07:34;;;;;;;3.00;1.33;;;;;;;24.00;50.05;100833.59;4993499;28;20077;-77
2022/06/04 12:11:03;;;;;;;5.13;1.15;;;;;;;24.01;49.52;100821.91;4993434;28;20057;-77
2022/06/04 12:14:10;;;;;;;4.57;1.30;;;;;;;24.10;50.31;100813.75;4981467;28;20069;-77
2022/06/04 12:17:24;;;;;;;2.80;1.40;;;;;;;24.07;50.40;100818.59;4996590;28;20560;-77
2022/06/04 12:24:23;;;;;;;4.50;1.25;;;;;;;24.33;48.67;100819.34;4993262;28;20405;-79
2022/06/04 12:27:27;;;;;;;2.30;1.00;;;;;;;24.24;49.40;100801.59;4993586;28;20049;-78
2022/06/04 12:30:37;;;;;;;3.70;1.20;;;;;;;24.14;50.07;100796.38;4993217;28;20130;-78
2022/06/04 12:33:50;;;;;;;2.20;1.00;;;;;;;24.25;48.72;100803.28;4993062;28;20398;-79
2022/06/04 12:36:55;;;;;;;3.38;1.23;;;;;;;24.53;48.91;100789.66;4961968;28;20057;-79
2022/06/04 12:40:18;;;;;;;2.22;0.95;;;;;;;24.71;48.23;100801.06;4967973;28;20049;-79
2022/06/04 12:43:30;;;;;;;4.20;1.05;;;;;;;24.81;47.18;100798.22;4973653;28;20154;-79
2022/06/04 12:46:35;;;;;;;3.33;1.10;;;;;;;25.09;46.19;100804.09;4973766;28;20041;-78
2022/06/04 12:49:53;;;;;;;3.55;1.02;;;;;;;25.39;44.53;100793.72;4973297;28;20410;-78
2022/06/04 12:53:23;;;;;;;3.17;0.90;;;;;;;25.57;43.79;100794.34;4973724;28;20093;-78
2022/06/04 12:56:38;;;;;;;3.70;1.25;;;;;;;25.57;46.27;100796.19;4973535;28;20046;-78
2022/06/04 12:59:45;;;;;;;6.07;1.33;;;;;;;25.84;45.55;100792.28;4973847;28;20085;-78
2022/06/04 13:03:07;;;;;;;3.80;1.10;;;;;;;25.91;45.27;100803.97;4973792;28;20179;-79
2022/06/04 13:06:34;;;;;;;3.30;1.13;;;;;;;25.97;45.61;100797.91;4973305;28;20065;-79
2022/06/04 13:09:48;;;;;;;3.70;1.10;;;;;;;26.30;44.26;100800.44;4961844;28;20317;-78
2022/06/04 13:13:13;;;;;;;7.55;1.25;;;;;;;26.39;43.38;100805.59;4973185;28;20053;-78
2022/06/04 13:16:27;;;;;;;2.42;1.00;;;;;;;26.57;41.68;100794.59;4973563;28;20139;-78
2022/06/04 13:19:36;;;;;;;2.80;1.33;;;;;;;26.54;41.90;100797.63;4975050;28;20104;-77
2022/06/04 13:22:52;;;;;;;4.47;1.67;;;;;;;26.81;43.24;100790.09;4977078;28;20049;-78
2022/06/04 13:26:27;;;;;;;3.22;0.90;;;;;;;26.89;41.21;100792.69;4977205;28;20045;-78
2022/06/04 13:29:34;;;;;;;4.65;1.48;;;;;;;26.84;44.71;100793.25;4977412;28;20413;-78
2022/06/04 13:32:38;;;;;;;6.43;1.45;;;;;;;27.33;43.41;100800.88;4977425;28;20526;-78
2022/06/04 13:35:47;;;;;;;5.57;1.27;;;;;;;27.61;42.13;100796.75;4976650;28;20114;-78
2022/06/04 13:38:55;;;;;;;4.85;1.60;;;;;;;27.83;41.94;100795.84;4976970;28;20049;-77
2022/06/04 13:42:02;;;;;;;2.45;1.17;;;;;;;27.63;41.52;100800.88;4976836;28;20102;-77
2022/06/04 13:45:10;;;;;;;2.63;1.10;;;;;;;28.34;39.95;100798.53;4976821;28;20141;-77
2022/06/04 13:48:26;;;;;;;4.88;1.35;;;;;;;28.36;39.37;100801.00;4975812;28;20046;-77
2022/06/04 13:51:30;;;;;;;2.58;1.08;;;;;;;28.59;39.62;100800.88;4977372;28;20050;-78
2022/06/04 13:54:37;;;;;;;2.83;1.15;;;;;;;29.17;38.60;100798.97;4977538;28;20057;-78
2022/06/04 13:57:44;;;;;;;3.05;1.40;;;;;;;29.53;36.78;100804.16;4977957;28;20037;-81
2022/06/04 14:00:51;;;;;;;4.63;1.55;;;;;;;29.30;36.68;100809.00;4979468;28;20049;-75
2022/06/04 14:07:19;;;;;;;2.78;1.20;;;;;;;30.90;34.39;100813.25;4978170;28;20100;-75
2022/06/04 14:10:23;;;;;;;4.22;1.20;;;;;;;32.34;31.94;100796.91;4977432;28;20070;-74
2022/06/04 14:14:05;;;;;;;3.42;1.45;;;;;;;33.18;30.31;100789.47;4976428;28;20561;-75
2022/06/04 14:17:40;;;;;;;2.60;1.20;;;;;;;33.80;29.33;100784.06;4975956;28;20182;-75
2022/06/04 14:20:53;;;;;;;3.65;1.20;;;;;;;33.40;30.06;100780.91;4976233;28;20101;-79
2022/06/04 14:24:10;;;;;;;2.42;0.90;;;;;;;29.38;36.07;100789.97;4976021;28;20497;-79
2022/06/04 14:27:29;;;;;;;5.00;1.30;;;;;;;34.77;27.86;100783.97;4976095;28;20061;-79
2022/06/04 14:30:48;;;;;;;5.32;1.63;;;;;;;37.47;23.71;100779.47;4975793;28;20050;-79
2022/06/04 14:33:57;;;;;;;2.92;1.70;;;;;;;37.11;24.75;100770.78;4975768;28;20487;-79
2022/06/04 14:37:00;;;;;;;7.65;2.00;;;;;;;36.88;24.16;100782.63;4963841;28;20097;-79
2022/06/04 14:40:05;;;;;;;4.30;2.00;;;;;;;36.02;24.79;100779.19;4975749;28;20069;-79
2022/06/04 14:43:24;;;;;;;3.78;1.60;;;;;;;35.73;25.66;100773.69;4975996;28;20049;-78
2022/06/04 14:47:07;;;;;;;2.40;1.58;;;;;;;36.43;25.70;100769.06;4975584;28;20041;-78
2022/06/04 14:50:23;;;;;;;4.63;1.48;;;;;;;36.46;25.05;100776.72;4975373;28;20053;-77
2022/06/04 14:53:29;;;;;;;4.03;1.25;;;;;;;37.56;22.62;100777.97;4975731;28;20450;-77
2022/06/04 14:56:44;;;;;;;5.88;1.38;;;;;;;37.82;23.08;100772.81;4976525;28;20053;-77
2022/06/04 15:00:25;;;;;;;4.68;1.35;;;;;;;38.24;22.29;100766.72;4975741;28;20070;-77
2022/06/04 15:03:48;;;;;;;4.05;1.27;;;;;;;38.77;21.41;100754.94;4976086;28;20049;-77
2022/06/04 15:07:35;;;;;;;3.30;1.35;;;;;;;39.10;21.52;100741.22;4975977;28;20056;-77
2022/06/04 15:11:05;;;;;;;4.45;1.50;;;;;;;38.54;21.91;100745.16;4975983;28;20489;-77